createdAt,value
2022-12-04T00:02:12.977Z,27.13
2022-12-04T00:04:59.870Z,30.07
2022-12-04T00:07:46.739Z,23.60
2022-12-04T00:10:35.151Z,28.80
2022-12-04T00:13:21.984Z,31.27
2022-12-04T00:16:10.201Z,23.73
2022-12-04T00:19:00.265Z,24.47
2022-12-04T00:21:47.315Z,24.33
2022-12-04T00:24:34.605Z,27.00
2022-12-04T00:27:23.328Z,24.50
2022-12-04T00:30:11.309Z,26.23
2022-12-04T00:32:59.785Z,25.83
2022-12-04T00:35:49.055Z,24.50
2022-12-04T00:38:36.482Z,24.07
2022-12-04T00:41:25.777Z,26.80
2022-12-04T00:44:14.254Z,27.27
2022-12-04T00:47:01.630Z,25.03
2022-12-04T00:49:48.812Z,24.20
2022-12-04T00:52:35.843Z,24.57
2022-12-04T00:55:25.981Z,23.20
2022-12-04T00:58:14.301Z,24.30
2022-12-04T01:01:05.511Z,29.93
2022-12-04T01:03:53.294Z,28.40
2022-12-04T01:06:39.933Z,25.07
2022-12-04T01:09:27.096Z,25.03
2022-12-04T01:12:20.557Z,25.37
2022-12-04T01:15:08.706Z,24.40
2022-12-04T01:17:57.306Z,27.47
2022-12-04T01:20:48.602Z,24.77
2022-12-04T01:23:35.460Z,24.00
2022-12-04T01:26:25.219Z,21.77
2022-12-04T01:29:14.264Z,26.40
2022-12-04T01:32:01.370Z,24.80
2022-12-04T01:34:51.743Z,25.00
2022-12-04T01:37:39.241Z,27.90
2022-12-04T01:40:26.362Z,26.40
2022-12-04T01:43:14.350Z,23.90
2022-12-04T01:46:04.785Z,23.07
2022-12-04T01:48:52.834Z,25.50
2022-12-04T01:51:42.280Z,24.67
2022-12-04T01:54:30.409Z,27.47
2022-12-04T01:57:19.380Z,23.77
2022-12-04T02:00:08.566Z,29.33
2022-12-04T02:02:55.739Z,26.37
2022-12-04T02:05:42.834Z,24.60
2022-12-04T02:08:31.229Z,28.13
2022-12-04T02:11:25.108Z,26.60
2022-12-04T02:14:21.232Z,26.07
2022-12-04T02:17:14.826Z,27.00
2022-12-04T02:20:10.658Z,23.23
2022-12-04T02:23:13.519Z,24.33
2022-12-04T02:26:06.429Z,25.87
2022-12-04T02:28:57.746Z,22.43
2022-12-04T02:31:47.955Z,23.70
2022-12-04T02:34:37.589Z,23.70
2022-12-04T02:37:32.063Z,22.97
2022-12-04T02:40:21.307Z,27.30
2022-12-04T02:43:12.375Z,23.70
2022-12-04T02:46:02.551Z,22.53
2022-12-04T02:48:51.939Z,25.00
2022-12-04T02:51:41.341Z,21.83
2022-12-04T02:54:33.337Z,25.10
2022-12-04T02:57:23.084Z,22.73
2022-12-04T03:00:11.682Z,25.80
2022-12-04T03:03:01.883Z,26.00
2022-12-04T03:05:53.601Z,25.43
2022-12-04T03:08:42.336Z,24.57
2022-12-04T03:11:35.373Z,22.57
2022-12-04T03:14:24.037Z,24.00
2022-12-04T03:17:12.895Z,23.23
2022-12-04T03:20:06.626Z,25.97
2022-12-04T03:22:55.418Z,25.77
2022-12-04T03:25:51.341Z,26.03
2022-12-04T03:28:42.288Z,26.47
2022-12-04T03:31:41.289Z,27.83
2022-12-04T03:34:33.713Z,28.07
2022-12-04T03:37:27.022Z,26.60
2022-12-04T03:40:22.839Z,28.70
2022-12-04T03:43:13.470Z,27.77
2022-12-04T03:46:02.216Z,27.80
2022-12-04T03:48:52.408Z,26.80
2022-12-04T03:51:41.163Z,28.43
2022-12-04T03:54:31.077Z,28.43
2022-12-04T03:57:20.880Z,28.97
2022-12-04T04:00:13.963Z,30.07
2022-12-04T04:03:05.438Z,28.70
2022-12-04T04:05:56.057Z,30.90
2022-12-04T04:08:44.710Z,28.57
2022-12-04T04:11:34.699Z,29.33
2022-12-04T04:14:47.462Z,30.57
2022-12-04T04:18:08.642Z,28.77
2022-12-04T04:21:18.313Z,30.30
2022-12-04T04:24:15.274Z,29.50
2022-12-04T04:27:04.212Z,29.47
2022-12-04T04:29:52.876Z,31.23
2022-12-04T04:32:41.610Z,32.00
2022-12-04T04:35:37.068Z,31.83
2022-12-04T04:38:27.625Z,27.37
2022-12-04T04:41:21.977Z,26.07
2022-12-04T04:44:14.159Z,27.47
2022-12-04T04:47:03.689Z,26.90
2022-12-04T04:49:52.606Z,26.60
2022-12-04T04:52:44.360Z,25.70
2022-12-04T04:55:34.339Z,27.47
2022-12-04T04:58:22.415Z,28.13
2022-12-04T05:01:12.820Z,26.53
2022-12-04T05:04:00.162Z,25.67
2022-12-04T05:06:49.046Z,26.23
2022-12-04T05:09:41.063Z,30.73
2022-12-04T05:12:28.669Z,26.47
2022-12-04T05:15:17.509Z,28.27
2022-12-04T05:18:06.355Z,27.47
2022-12-04T05:20:53.578Z,26.47
2022-12-04T05:23:40.211Z,25.07
2022-12-04T05:26:27.874Z,26.20
2022-12-04T05:29:14.817Z,26.80
2022-12-04T05:32:01.860Z,24.00
2022-12-04T05:34:50.547Z,26.63
2022-12-04T05:37:38.564Z,26.10
2022-12-04T05:40:25.631Z,28.33
2022-12-04T05:43:12.718Z,29.80
2022-12-04T05:46:02.082Z,24.67
2022-12-04T05:48:48.595Z,24.33
2022-12-04T05:51:36.868Z,31.20
2022-12-04T05:54:23.802Z,25.53
2022-12-04T05:57:10.647Z,25.40
2022-12-04T05:59:58.020Z,24.90
2022-12-04T06:02:50.149Z,24.07
2022-12-04T06:05:37.205Z,26.20
2022-12-04T06:08:28.179Z,25.23
2022-12-04T06:11:16.029Z,18.50
2022-12-04T06:14:04.375Z,23.60
2022-12-04T06:16:51.763Z,23.00
2022-12-04T06:19:38.677Z,25.47
2022-12-04T06:22:25.738Z,28.60
2022-12-04T06:25:14.233Z,23.70
2022-12-04T06:28:01.342Z,26.83
2022-12-04T06:30:48.286Z,27.03
2022-12-04T06:33:35.608Z,26.07
2022-12-04T06:36:22.958Z,22.77
2022-12-04T06:39:15.554Z,24.27
2022-12-04T06:42:06.842Z,23.77
2022-12-04T06:44:53.890Z,23.97
2022-12-04T06:47:40.830Z,22.47
2022-12-04T06:50:27.859Z,25.23
2022-12-04T06:53:14.968Z,31.73
2022-12-04T06:56:06.292Z,25.83
2022-12-04T06:58:56.794Z,23.70
2022-12-04T07:01:43.917Z,24.90
2022-12-04T07:04:30.982Z,24.67
2022-12-04T07:07:17.836Z,20.57
2022-12-04T07:10:04.976Z,24.37
2022-12-04T07:12:53.420Z,24.83
2022-12-04T07:15:41.832Z,29.13
2022-12-04T07:18:28.963Z,23.67
2022-12-04T07:21:17.752Z,24.57
2022-12-04T07:24:05.023Z,25.67
2022-12-04T07:26:52.053Z,22.80
2022-12-04T07:29:39.011Z,22.93
2022-12-04T07:32:27.243Z,25.20
2022-12-04T07:35:14.285Z,27.37
2022-12-04T07:38:03.122Z,25.97
2022-12-04T07:40:50.216Z,24.30
2022-12-04T07:43:37.302Z,25.40
2022-12-04T07:46:25.414Z,23.57
2022-12-04T07:49:14.315Z,23.77
2022-12-04T07:52:01.592Z,24.43
2022-12-04T07:54:48.813Z,28.20
2022-12-04T07:57:35.670Z,26.40
2022-12-04T08:00:22.973Z,26.43
2022-12-04T08:03:10.552Z,22.70
2022-12-04T08:06:02.571Z,27.30
2022-12-04T08:08:49.629Z,23.00
2022-12-04T08:11:36.454Z,23.63
2022-12-04T08:14:23.424Z,23.30
2022-12-04T08:17:10.807Z,25.77
2022-12-04T08:19:58.374Z,24.70
2022-12-04T08:22:46.732Z,24.90
2022-12-04T08:25:35.017Z,23.47
2022-12-04T08:28:21.898Z,27.30
2022-12-04T08:31:21.146Z,20.13
2022-12-04T08:34:11.076Z,22.50
2022-12-04T08:36:58.063Z,19.47
2022-12-04T08:39:46.707Z,24.37
2022-12-04T08:42:36.743Z,20.37
2022-12-04T08:45:23.913Z,22.83
2022-12-04T08:48:12.469Z,22.83
2022-12-04T08:50:59.725Z,21.33
2022-12-04T08:53:46.595Z,18.70
2022-12-04T08:56:40.609Z,22.87
2022-12-04T08:59:27.538Z,22.83
2022-12-04T09:02:16.717Z,21.30
2022-12-04T09:05:04.318Z,22.50
2022-12-04T09:07:51.539Z,30.70
2022-12-04T09:10:38.883Z,22.60
2022-12-04T09:13:27.194Z,25.00
2022-12-04T09:16:15.115Z,22.97
2022-12-04T09:19:05.620Z,21.57
2022-12-04T09:21:52.796Z,21.87
2022-12-04T09:24:40.009Z,22.17
2022-12-04T09:27:26.906Z,23.53
2022-12-04T09:30:15.686Z,21.93
2022-12-04T09:33:03.550Z,24.73
2022-12-04T09:35:53.882Z,21.03
2022-12-04T09:38:46.384Z,22.80
2022-12-04T09:41:42.005Z,24.77
2022-12-04T09:44:32.896Z,22.50
2022-12-04T09:47:27.399Z,22.43
2022-12-04T09:50:19.698Z,22.57
2022-12-04T09:53:11.657Z,20.30
2022-12-04T09:56:06.135Z,26.43
2022-12-04T09:58:58.825Z,28.13
2022-12-04T10:01:48.287Z,29.27
2022-12-04T10:04:36.805Z,25.30
2022-12-04T10:07:27.187Z,28.87
2022-12-04T10:10:25.555Z,26.67
2022-12-04T10:13:45.223Z,27.97
2022-12-04T10:16:47.412Z,29.23
2022-12-04T10:19:37.160Z,26.13
2022-12-04T10:22:27.146Z,27.37
2022-12-04T10:25:18.866Z,32.00
2022-12-04T10:28:13.711Z,31.20
2022-12-04T10:31:03.021Z,25.73
2022-12-04T10:33:54.185Z,26.17
2022-12-04T10:36:50.381Z,29.80
2022-12-04T10:39:43.681Z,28.30
2022-12-04T10:42:33.261Z,29.63
2022-12-04T10:45:21.321Z,32.40
2022-12-04T10:48:08.610Z,28.00
2022-12-04T10:50:57.817Z,34.23
2022-12-04T10:53:46.133Z,29.80
2022-12-04T10:56:37.452Z,30.43
2022-12-04T10:59:25.342Z,30.10
2022-12-04T11:02:17.944Z,29.00
2022-12-04T11:05:06.776Z,28.80
2022-12-04T11:07:54.744Z,29.67
2022-12-04T11:10:44.020Z,28.87
2022-12-04T11:13:32.624Z,26.37
2022-12-04T11:16:32.804Z,26.10
2022-12-04T11:19:24.655Z,26.73
2022-12-04T11:22:14.726Z,24.70
2022-12-04T11:25:01.980Z,25.40
2022-12-04T11:27:50.614Z,24.60
2022-12-04T11:30:40.196Z,24.17
2022-12-04T11:33:30.940Z,26.83
2022-12-04T11:36:21.760Z,24.13
2022-12-04T11:39:16.482Z,26.17
2022-12-04T11:42:06.558Z,25.03
2022-12-04T11:44:54.263Z,25.30
2022-12-04T11:47:42.559Z,24.60
2022-12-04T11:50:37.994Z,26.47
2022-12-04T11:53:28.157Z,31.57
2022-12-04T11:56:24.986Z,27.20
2022-12-04T11:59:30.219Z,30.30
2022-12-04T12:02:37.128Z,26.70
2022-12-04T12:05:39.437Z,23.37
2022-12-04T12:08:34.424Z,26.00
2022-12-04T12:11:25.256Z,26.60
2022-12-04T12:14:18.112Z,26.33
2022-12-04T12:17:12.896Z,26.37
2022-12-04T12:20:06.557Z,23.03
2022-12-04T12:23:13.704Z,26.30
2022-12-04T12:26:06.412Z,26.47
2022-12-04T12:29:02.517Z,23.53
2022-12-04T12:31:59.194Z,27.43
2022-12-04T12:34:47.302Z,26.53
2022-12-04T12:37:41.143Z,27.50
2022-12-04T12:40:31.241Z,24.67
2022-12-04T12:43:22.904Z,25.00
2022-12-04T12:46:13.192Z,26.67
2022-12-04T12:49:02.711Z,30.33
2022-12-04T12:51:52.670Z,28.53
2022-12-04T12:54:42.890Z,27.23
2022-12-04T12:57:31.493Z,25.17
2022-12-04T13:00:21.573Z,28.73
2022-12-04T13:03:14.355Z,31.47
2022-12-04T13:06:02.968Z,22.63
2022-12-04T13:08:56.750Z,24.60
2022-12-04T13:11:45.697Z,30.30
2022-12-04T13:14:32.854Z,28.77
2022-12-04T13:17:23.231Z,29.80
2022-12-04T13:20:16.020Z,26.27
2022-12-04T13:23:11.864Z,29.83
2022-12-04T13:26:04.569Z,28.77
2022-12-04T13:28:55.478Z,25.67
2022-12-04T13:31:49.497Z,27.50
2022-12-04T13:34:57.604Z,25.30
2022-12-04T13:37:55.010Z,28.07
2022-12-04T13:40:43.331Z,27.23
2022-12-04T13:43:35.123Z,28.60
2022-12-04T13:46:28.591Z,19.63
2022-12-04T13:49:37.590Z,26.33
2022-12-04T13:52:40.563Z,24.37
2022-12-04T13:55:31.108Z,22.97
2022-12-04T13:58:30.752Z,24.07
2022-12-04T14:01:30.773Z,22.43
2022-12-04T14:04:25.762Z,22.00
2022-12-04T14:07:26.823Z,24.33
2022-12-04T14:10:29.579Z,22.30
2022-12-04T14:13:20.783Z,25.77
2022-12-04T14:16:11.752Z,26.97
2022-12-04T14:19:01.668Z,26.07
2022-12-04T14:21:49.029Z,27.13
2022-12-04T14:24:39.479Z,22.57
2022-12-04T14:27:36.293Z,29.73
2022-12-04T14:30:25.529Z,25.07
2022-12-04T14:33:22.401Z,25.47
2022-12-04T14:36:16.853Z,25.73
2022-12-04T14:39:09.932Z,25.83
2022-12-04T14:42:08.515Z,24.73
2022-12-04T14:44:58.444Z,27.53
2022-12-04T14:48:00.850Z,23.03
2022-12-04T14:50:53.196Z,26.60
2022-12-04T14:53:46.873Z,24.57
2022-12-04T14:56:52.843Z,24.50
2022-12-04T14:59:45.260Z,23.57
2022-12-04T15:02:40.100Z,25.37
2022-12-04T15:05:30.124Z,25.67
2022-12-04T15:08:17.194Z,24.77
2022-12-04T15:11:25.121Z,23.60
2022-12-04T15:14:14.755Z,28.83
2022-12-04T15:17:05.154Z,25.70
2022-12-04T15:19:52.027Z,25.67
2022-12-04T15:22:39.019Z,31.10
2022-12-04T15:25:29.414Z,27.13
2022-12-04T15:28:20.716Z,26.17
2022-12-04T15:31:13.177Z,26.20
2022-12-04T15:34:03.547Z,29.73
2022-12-04T15:36:54.870Z,32.13
2022-12-04T15:39:42.039Z,29.47
2022-12-04T15:42:30.030Z,24.87
2022-12-04T15:45:29.537Z,26.07
2022-12-04T15:48:25.372Z,25.47
2022-12-04T15:51:14.674Z,27.00
2022-12-04T15:54:01.490Z,29.73
2022-12-04T15:57:02.036Z,29.23
2022-12-04T15:59:51.655Z,31.47
2022-12-04T16:02:42.522Z,31.50
2022-12-04T16:05:35.399Z,27.17
2022-12-04T16:08:31.390Z,29.13
2022-12-04T16:11:30.956Z,28.13
2022-12-04T16:14:31.282Z,27.90
2022-12-04T16:17:19.055Z,28.03
2022-12-04T16:20:07.059Z,30.90
2022-12-04T16:22:56.307Z,32.20
2022-12-04T16:25:44.356Z,34.53
2022-12-04T16:28:31.493Z,35.93
2022-12-04T16:31:20.354Z,35.60
2022-12-04T16:34:07.464Z,36.13
2022-12-04T16:36:54.505Z,34.97
2022-12-04T16:39:42.289Z,34.27
2022-12-04T16:42:30.962Z,32.33
2022-12-04T16:45:24.415Z,34.30
2022-12-04T16:48:11.699Z,35.10
2022-12-04T16:50:58.692Z,35.67
2022-12-04T16:53:45.602Z,36.70
2022-12-04T16:56:41.686Z,37.33
2022-12-04T16:59:29.838Z,36.83
2022-12-04T17:02:19.120Z,40.33
2022-12-04T17:05:06.716Z,40.43
2022-12-04T17:07:53.847Z,40.87
2022-12-04T17:10:40.673Z,42.27
2022-12-04T17:13:28.211Z,46.60
2022-12-04T17:16:19.597Z,50.40
2022-12-04T17:19:06.947Z,47.20
2022-12-04T17:21:54.028Z,47.20
2022-12-04T17:24:48.122Z,51.83
2022-12-04T17:27:37.660Z,53.90
2022-12-04T17:30:24.944Z,54.97
2022-12-04T17:33:13.163Z,57.40
2022-12-04T17:36:00.593Z,59.00
2022-12-04T17:38:47.735Z,58.37
2022-12-04T17:41:35.660Z,58.33
2022-12-04T17:44:22.639Z,53.70
2022-12-04T17:47:10.091Z,55.93
2022-12-04T17:49:58.171Z,56.87
2022-12-04T17:52:45.155Z,52.27
2022-12-04T17:55:32.012Z,52.73
2022-12-04T17:58:19.458Z,53.77
2022-12-04T18:01:07.963Z,48.50
2022-12-04T18:03:56.284Z,57.37
2022-12-04T18:06:45.574Z,48.37
2022-12-04T18:09:33.758Z,48.37
2022-12-04T18:12:20.594Z,46.43
2022-12-04T18:15:08.354Z,55.97
2022-12-04T18:17:55.209Z,50.47
2022-12-04T18:20:42.434Z,58.50
2022-12-04T18:23:31.633Z,44.70
2022-12-04T18:26:20.629Z,50.70
2022-12-04T18:29:08.340Z,44.87
2022-12-04T18:31:55.950Z,50.60
2022-12-04T18:34:43.314Z,45.90
2022-12-04T18:37:29.822Z,41.60
2022-12-04T18:40:18.227Z,45.37
2022-12-04T18:43:05.075Z,43.60
2022-12-04T18:46:05.601Z,44.07
2022-12-04T18:48:55.529Z,38.40
2022-12-04T18:51:48.935Z,42.83
2022-12-04T18:54:36.792Z,44.23
2022-12-04T18:57:24.929Z,44.43
2022-12-04T19:00:12.656Z,41.40
2022-12-04T19:02:59.741Z,41.07
2022-12-04T19:05:50.551Z,42.53
2022-12-04T19:08:42.696Z,42.63
2022-12-04T19:11:30.615Z,45.73
2022-12-04T19:14:23.711Z,38.93
2022-12-04T19:17:11.604Z,42.27
2022-12-04T19:19:59.404Z,44.00
2022-12-04T19:22:46.446Z,50.47
2022-12-04T19:25:33.590Z,43.60
2022-12-04T19:28:20.677Z,46.40
2022-12-04T19:31:15.945Z,49.50
2022-12-04T19:34:03.475Z,55.27
2022-12-04T19:36:51.142Z,47.77
2022-12-04T19:39:38.349Z,48.97
2022-12-04T19:42:25.757Z,52.87
2022-12-04T19:45:12.883Z,49.60
2022-12-04T19:48:00.786Z,45.23
2022-12-04T19:50:47.805Z,44.37
2022-12-04T19:53:40.665Z,49.57
2022-12-04T19:56:29.768Z,43.77
2022-12-04T19:59:16.921Z,44.93
2022-12-04T20:02:04.044Z,42.70
2022-12-04T20:04:52.285Z,42.37
2022-12-04T20:07:39.475Z,51.67
2022-12-04T20:10:26.535Z,42.13
2022-12-04T20:13:14.187Z,43.50
2022-12-04T20:16:03.268Z,47.80
2022-12-04T20:18:50.500Z,45.40
2022-12-04T20:21:38.732Z,43.77
2022-12-04T20:24:27.949Z,43.40
2022-12-04T20:27:15.019Z,48.63
2022-12-04T20:30:02.253Z,41.13
2022-12-04T20:32:49.435Z,40.37
2022-12-04T20:35:36.701Z,40.47
2022-12-04T20:38:24.664Z,44.57
2022-12-04T20:41:15.986Z,37.03
2022-12-04T20:44:05.085Z,36.07
2022-12-04T20:46:51.812Z,43.73
2022-12-04T20:49:39.251Z,40.63
2022-12-04T20:52:26.375Z,40.23
2022-12-04T20:55:14.413Z,39.60
2022-12-04T20:58:01.951Z,38.83
2022-12-04T21:00:48.949Z,36.47
2022-12-04T21:03:36.125Z,36.23
2022-12-04T21:06:28.370Z,42.33
2022-12-04T21:09:20.656Z,37.93
2022-12-04T21:12:29.289Z,37.53
